createdAt,value
2022-09-21T00:00:37.080Z,99.99
2022-09-21T00:01:37.127Z,99.99
2022-09-21T00:02:38.087Z,99.99
2022-09-21T00:03:37.065Z,99.99
2022-09-21T00:04:37.128Z,99.99
2022-09-21T00:05:37.055Z,99.99
2022-09-21T00:06:37.040Z,99.99
2022-09-21T00:07:37.065Z,99.99
2022-09-21T00:08:37.012Z,99.99
2022-09-21T00:09:38.014Z,99.99
2022-09-21T00:10:37.008Z,99.99
2022-09-21T00:11:36.999Z,99.99
2022-09-21T00:12:37.017Z,99.99
2022-09-21T00:13:36.989Z,99.99
2022-09-21T00:14:36.978Z,99.99
2022-09-21T00:15:36.961Z,99.99
2022-09-21T00:16:38.026Z,99.99
2022-09-21T00:17:36.953Z,99.99
2022-09-21T00:18:36.944Z,99.99
2022-09-21T00:19:36.939Z,99.99
2022-09-21T00:20:36.931Z,99.99
2022-09-21T00:21:36.959Z,99.99
2022-09-21T00:22:36.911Z,99.99
2022-09-21T00:23:36.904Z,99.99
2022-09-21T00:24:36.900Z,99.99
2022-09-21T00:25:36.892Z,99.99
2022-09-21T00:26:36.912Z,99.99
2022-09-21T00:27:36.878Z,99.99
2022-09-21T00:28:36.867Z,99.99
2022-09-21T00:29:36.861Z,99.99
2022-09-21T00:30:36.854Z,99.99
2022-09-21T00:31:36.927Z,99.99
2022-09-21T00:32:36.833Z,99.99
2022-09-21T00:33:36.839Z,99.99
2022-09-21T00:34:36.820Z,99.99
2022-09-21T00:35:36.812Z,99.99
2022-09-21T00:36:36.838Z,99.99
2022-09-21T00:37:36.794Z,99.99
2022-09-21T00:38:36.794Z,99.99
2022-09-21T00:39:36.785Z,99.99
2022-09-21T00:40:36.807Z,99.99
2022-09-21T00:41:36.794Z,99.99
2022-09-21T00:42:36.768Z,99.99
2022-09-21T00:43:36.750Z,99.99
2022-09-21T00:44:36.744Z,99.99
2022-09-21T00:45:36.756Z,99.99
2022-09-21T00:46:36.758Z,99.99
2022-09-21T00:47:36.726Z,99.99
2022-09-21T00:48:36.710Z,99.99
2022-09-21T00:49:36.704Z,99.99
2022-09-21T00:50:36.699Z,99.99
2022-09-21T00:51:36.717Z,99.99
2022-09-21T00:52:36.680Z,99.99
2022-09-21T00:53:36.671Z,99.99
2022-09-21T00:54:36.667Z,99.99
2022-09-21T00:55:36.652Z,99.99
2022-09-21T00:56:36.668Z,99.99
2022-09-21T00:57:36.636Z,99.99
2022-09-21T00:58:36.629Z,99.99
2022-09-21T00:59:36.621Z,99.99
2022-09-21T01:00:36.613Z,99.99
2022-09-21T01:01:36.630Z,99.99
2022-09-21T01:02:36.601Z,99.99
2022-09-21T01:03:36.591Z,99.99
2022-09-21T01:04:36.584Z,99.99
2022-09-21T01:05:36.581Z,99.99
2022-09-21T01:06:36.599Z,99.99
2022-09-21T01:07:36.565Z,99.99
2022-09-21T01:08:36.559Z,99.99
2022-09-21T01:09:36.550Z,99.99
2022-09-21T01:10:36.536Z,99.99
2022-09-21T01:11:36.561Z,99.99
2022-09-21T01:12:36.530Z,99.99
2022-09-21T01:13:36.515Z,99.99
2022-09-21T01:14:36.511Z,99.99
2022-09-21T01:15:36.503Z,99.99
2022-09-21T01:16:36.593Z,99.99
2022-09-21T01:17:36.483Z,99.99
2022-09-21T01:18:36.476Z,99.99
2022-09-21T01:19:36.466Z,99.99
2022-09-21T01:20:36.462Z,99.99
2022-09-21T01:21:36.459Z,99.99
2022-09-21T01:22:36.474Z,99.99
2022-09-21T01:23:36.478Z,99.99
2022-09-21T01:24:36.432Z,99.99
2022-09-21T01:25:36.420Z,99.99
2022-09-21T01:26:36.417Z,99.99
2022-09-21T01:27:36.432Z,99.99
2022-09-21T01:28:36.399Z,99.99
2022-09-21T01:29:36.395Z,99.99
2022-09-21T01:30:36.394Z,99.99
2022-09-21T01:31:36.491Z,99.99
2022-09-21T01:32:36.394Z,99.99
2022-09-21T01:33:36.365Z,99.99
2022-09-21T01:34:36.352Z,99.99
2022-09-21T01:35:36.341Z,99.99
2022-09-21T01:36:36.341Z,99.99
2022-09-21T01:37:36.355Z,99.99
2022-09-21T01:38:36.320Z,99.99
2022-09-21T01:39:36.310Z,99.99
2022-09-21T01:40:36.370Z,99.99
2022-09-21T01:41:36.297Z,99.99
2022-09-21T01:42:36.317Z,99.99
2022-09-21T01:43:36.277Z,99.99
2022-09-21T01:44:36.281Z,99.99
2022-09-21T01:45:36.324Z,99.99
2022-09-21T01:46:36.256Z,99.99
2022-09-21T01:47:36.278Z,99.99
2022-09-21T01:48:36.243Z,99.99
2022-09-21T01:49:36.242Z,99.99
2022-09-21T01:50:36.224Z,99.99
2022-09-21T01:51:36.214Z,99.99
2022-09-21T01:52:36.245Z,99.99
2022-09-21T01:53:36.204Z,99.99
2022-09-21T01:54:36.200Z,99.99
2022-09-21T01:55:36.188Z,99.99
2022-09-21T01:56:36.178Z,99.99
2022-09-21T01:57:36.194Z,99.99
2022-09-21T01:58:36.174Z,99.99
2022-09-21T01:59:36.160Z,99.99
2022-09-21T02:00:36.211Z,99.99
2022-09-21T02:01:36.170Z,99.99
2022-09-21T02:02:36.169Z,99.99
2022-09-21T02:03:36.127Z,99.99
2022-09-21T02:04:36.117Z,99.99
2022-09-21T02:05:36.116Z,99.99
2022-09-21T02:06:36.099Z,99.99
2022-09-21T02:07:36.129Z,99.99
2022-09-21T02:08:36.084Z,99.99
2022-09-21T02:09:36.087Z,99.99
2022-09-21T02:10:36.069Z,99.99
2022-09-21T02:11:36.059Z,99.99
2022-09-21T02:12:36.115Z,99.99
2022-09-21T02:13:36.052Z,99.99
2022-09-21T02:14:36.033Z,99.99
2022-09-21T02:15:36.031Z,99.99
2022-09-21T02:16:36.018Z,99.99
2022-09-21T02:17:36.015Z,99.99
2022-09-21T02:18:36.033Z,99.99
2022-09-21T02:19:36.001Z,99.99
2022-09-21T02:20:35.998Z,99.99
2022-09-21T02:21:35.979Z,99.99
2022-09-21T02:22:35.974Z,99.99
2022-09-21T02:23:35.988Z,99.99
2022-09-21T02:24:35.959Z,99.99
2022-09-21T02:25:35.951Z,99.99
2022-09-21T02:26:35.941Z,99.99
2022-09-21T02:27:35.936Z,99.99
2022-09-21T02:28:35.989Z,99.99
2022-09-21T02:29:35.924Z,99.99
2022-09-21T02:30:35.920Z,99.99
2022-09-21T02:31:35.956Z,99.99
2022-09-21T02:32:35.897Z,99.99
2022-09-21T02:33:35.911Z,99.99
2022-09-21T02:34:35.879Z,99.99
2022-09-21T02:35:35.883Z,99.99
2022-09-21T02:36:35.867Z,99.99
2022-09-21T02:37:35.856Z,99.99
2022-09-21T02:38:35.879Z,99.99
2022-09-21T02:39:35.855Z,99.99
2022-09-21T02:40:35.877Z,99.99
2022-09-21T02:41:35.825Z,99.99
2022-09-21T02:42:35.823Z,99.99
2022-09-21T02:43:35.842Z,99.99
2022-09-21T02:44:35.809Z,99.99
2022-09-21T02:45:35.809Z,99.99
2022-09-21T02:46:35.845Z,99.99
2022-09-21T02:47:35.786Z,99.99
2022-09-21T02:48:35.801Z,99.99
2022-09-21T02:49:35.765Z,99.99
2022-09-21T02:50:35.754Z,99.99
2022-09-21T02:51:35.749Z,99.99
2022-09-21T02:52:35.737Z,99.99
2022-09-21T02:53:35.757Z,99.99
2022-09-21T02:54:35.731Z,99.99
2022-09-21T02:55:35.716Z,99.99
2022-09-21T02:56:35.707Z,99.99
2022-09-21T02:57:35.703Z,99.99
2022-09-21T02:58:35.717Z,99.99
2022-09-21T02:59:35.691Z,99.99
2022-09-21T03:00:35.706Z,99.99
2022-09-21T03:01:35.691Z,99.99
2022-09-21T03:02:35.663Z,99.99
2022-09-21T03:03:35.675Z,99.99
2022-09-21T03:04:35.654Z,99.99
2022-09-21T03:05:35.640Z,99.99
2022-09-21T03:06:35.625Z,99.99
2022-09-21T03:07:35.622Z,99.99
2022-09-21T03:08:35.632Z,99.99
2022-09-21T03:09:35.606Z,99.99
2022-09-21T03:10:35.601Z,99.99
2022-09-21T03:11:35.588Z,99.99
2022-09-21T03:12:35.566Z,99.99
2022-09-21T03:13:36.598Z,99.99
2022-09-21T03:14:35.561Z,99.99
2022-09-21T03:15:35.609Z,99.99
2022-09-21T03:16:35.565Z,99.99
2022-09-21T03:17:35.535Z,99.99
2022-09-21T03:18:35.561Z,99.99
2022-09-21T03:19:35.523Z,99.99
2022-09-21T03:20:35.513Z,99.99
2022-09-21T03:21:38.370Z,99.99
2022-09-21T03:22:35.504Z,99.99
2022-09-21T03:23:35.496Z,99.99
2022-09-21T03:24:35.511Z,99.99
2022-09-21T03:25:35.480Z,99.99
2022-09-21T03:26:35.467Z,99.99
2022-09-21T03:27:35.462Z,99.99
2022-09-21T03:28:35.477Z,99.99
2022-09-21T03:29:35.441Z,99.99
2022-09-21T03:30:35.439Z,99.99
2022-09-21T03:31:35.429Z,99.99
2022-09-21T03:32:35.425Z,99.99
2022-09-21T03:33:35.414Z,99.99
2022-09-21T03:34:35.431Z,99.99
2022-09-21T03:35:35.399Z,99.99
2022-09-21T03:36:35.391Z,99.99
2022-09-21T03:37:39.316Z,99.99
2022-09-21T03:38:37.376Z,99.99
2022-09-21T03:39:35.393Z,99.99
2022-09-21T03:40:35.385Z,99.99
2022-09-21T03:41:35.352Z,99.99
2022-09-21T03:42:35.341Z,99.99
2022-09-21T03:43:35.336Z,99.99
2022-09-21T03:44:35.356Z,99.99
2022-09-21T03:45:35.322Z,99.99
2022-09-21T03:46:35.343Z,99.99
2022-09-21T03:47:35.306Z,99.99
2022-09-21T03:48:35.297Z,99.99
2022-09-21T03:49:35.312Z,99.99
2022-09-21T03:50:35.286Z,99.99
2022-09-21T03:51:35.270Z,99.99
2022-09-21T03:52:35.263Z,99.99
2022-09-21T03:53:35.257Z,99.99
2022-09-21T03:54:35.271Z,99.99
2022-09-21T03:55:35.235Z,99.99
2022-09-21T03:56:35.233Z,99.99
2022-09-21T03:57:35.218Z,99.99
2022-09-21T03:58:35.214Z,99.99
2022-09-21T03:59:35.234Z,99.99
2022-09-21T04:00:35.197Z,99.99
2022-09-21T04:01:35.204Z,99.99
2022-09-21T04:02:35.231Z,99.99
2022-09-21T04:03:35.174Z,99.99
2022-09-21T04:04:35.195Z,99.99
2022-09-21T04:05:35.206Z,99.99
2022-09-21T04:06:35.156Z,99.99
2022-09-21T04:07:35.151Z,99.99
2022-09-21T04:08:35.133Z,99.99
2022-09-21T04:09:35.152Z,99.99
2022-09-21T04:10:35.126Z,99.99
2022-09-21T04:11:35.115Z,99.99
2022-09-21T04:12:35.105Z,99.99
2022-09-21T04:13:35.097Z,99.99
2022-09-21T04:14:35.088Z,99.99
2022-09-21T04:15:35.145Z,99.99
2022-09-21T04:16:35.072Z,99.99
2022-09-21T04:17:35.062Z,99.99
2022-09-21T04:18:35.055Z,99.99
2022-09-21T04:19:35.051Z,99.99
2022-09-21T04:20:35.066Z,99.99
2022-09-21T04:21:35.030Z,99.99
2022-09-21T04:22:35.424Z,99.99
2022-09-21T04:23:35.016Z,99.99
2022-09-21T04:24:35.005Z,99.99
2022-09-21T04:25:35.023Z,99.99
2022-09-21T04:26:34.991Z,99.99
2022-09-21T04:27:34.987Z,99.99
2022-09-21T04:28:34.972Z,99.99
2022-09-21T04:29:34.967Z,99.99
2022-09-21T04:30:37.712Z,99.99
2022-09-21T04:31:35.950Z,99.99
2022-09-21T04:32:34.940Z,99.99
2022-09-21T04:33:34.933Z,99.99
2022-09-21T04:34:34.920Z,99.99
2022-09-21T04:35:34.958Z,99.99
2022-09-21T04:36:36.784Z,99.99
2022-09-21T04:37:35.899Z,99.99
2022-09-21T04:38:34.893Z,99.99
2022-09-21T04:39:34.880Z,99.99
2022-09-21T04:40:34.935Z,99.99
2022-09-21T04:41:34.871Z,99.99
2022-09-21T04:42:34.865Z,99.99
2022-09-21T04:43:34.855Z,99.99
2022-09-21T04:44:34.842Z,99.99
2022-09-21T04:45:34.863Z,99.99
2022-09-21T04:46:34.844Z,99.99
2022-09-21T04:47:34.822Z,99.99
2022-09-21T04:48:34.817Z,99.99
2022-09-21T04:49:34.807Z,99.99
2022-09-21T04:50:34.826Z,99.99
2022-09-21T04:51:34.787Z,99.99
2022-09-21T04:52:34.780Z,99.99
2022-09-21T04:53:34.772Z,99.99
2022-09-21T04:54:34.766Z,99.99
2022-09-21T04:55:34.791Z,99.99
2022-09-21T04:56:34.751Z,99.99
2022-09-21T04:57:34.744Z,99.99
2022-09-21T04:58:34.739Z,99.99
2022-09-21T04:59:34.725Z,99.99
2022-09-21T05:00:34.741Z,99.99
2022-09-21T05:01:34.721Z,99.99
2022-09-21T05:02:34.703Z,99.99
2022-09-21T05:03:34.783Z,99.99
2022-09-21T05:04:34.689Z,99.99
2022-09-21T05:05:34.702Z,99.99
2022-09-21T05:06:34.672Z,99.99
2022-09-21T05:07:34.664Z,99.99
2022-09-21T05:08:34.656Z,99.99
2022-09-21T05:09:34.653Z,99.99
2022-09-21T05:10:34.667Z,99.99
2022-09-21T05:11:34.636Z,99.99
2022-09-21T05:12:35.965Z,99.99
2022-09-21T05:13:34.620Z,99.99
2022-09-21T05:14:34.613Z,99.99
2022-09-21T05:15:34.661Z,99.99
2022-09-21T05:16:34.594Z,99.99
2022-09-21T05:17:34.587Z,99.99
2022-09-21T05:18:34.579Z,99.99
2022-09-21T05:19:34.573Z,99.99
2022-09-21T05:20:34.589Z,99.99
2022-09-21T05:21:34.553Z,99.99
2022-09-21T05:22:34.551Z,99.99
2022-09-21T05:23:34.542Z,99.99
2022-09-21T05:24:34.530Z,99.99
2022-09-21T05:25:34.550Z,99.99
2022-09-21T05:26:34.516Z,99.99
2022-09-21T05:27:34.508Z,99.99
2022-09-21T05:28:39.116Z,99.99
2022-09-21T05:29:36.494Z,99.99
2022-09-21T05:30:34.554Z,99.99
2022-09-21T05:31:34.541Z,99.99
2022-09-21T05:32:34.468Z,99.99
2022-09-21T05:33:34.462Z,99.99
2022-09-21T05:34:36.787Z,99.99
2022-09-21T05:35:35.470Z,99.99
2022-09-21T05:36:34.440Z,99.99
2022-09-21T05:37:34.434Z,99.99
2022-09-21T05:38:34.420Z,99.99
2022-09-21T05:39:34.417Z,99.99
2022-09-21T05:40:34.481Z,99.99
2022-09-21T05:41:34.399Z,99.99
2022-09-21T05:42:34.393Z,99.99
2022-09-21T05:43:34.383Z,99.99
2022-09-21T05:44:34.385Z,99.99
2022-09-21T05:45:34.391Z,99.99
2022-09-21T05:46:34.361Z,99.99
2022-09-21T05:47:34.354Z,99.99
2022-09-21T05:48:34.341Z,99.99
2022-09-21T05:49:34.332Z,99.99
2022-09-21T05:50:34.342Z,99.99
2022-09-21T05:51:35.316Z,99.99
2022-09-21T05:52:34.311Z,99.99
2022-09-21T05:53:34.303Z,99.99
2022-09-21T05:54:34.296Z,99.99
2022-09-21T05:55:34.315Z,99.99
2022-09-21T05:56:34.277Z,99.99
2022-09-21T05:57:34.274Z,99.99
2022-09-21T05:58:34.262Z,99.99
2022-09-21T05:59:34.254Z,99.99
2022-09-21T06:00:34.280Z,99.99
2022-09-21T06:01:34.287Z,99.99
2022-09-21T06:02:34.315Z,99.99
2022-09-21T06:03:34.223Z,99.99
2022-09-21T06:04:34.213Z,99.99
2022-09-21T06:05:34.238Z,99.99
2022-09-21T06:06:34.198Z,99.99
2022-09-21T06:07:34.243Z,99.99
2022-09-21T06:08:34.185Z,99.99
2022-09-21T06:09:34.172Z,99.99
2022-09-21T06:10:34.171Z,99.99
2022-09-21T06:11:34.190Z,99.99
2022-09-21T06:12:34.152Z,99.99
2022-09-21T06:13:34.146Z,99.99
2022-09-21T06:14:34.137Z,99.99
2022-09-21T06:15:34.132Z,99.99
2022-09-21T06:16:34.215Z,99.99
2022-09-21T06:17:34.118Z,99.99
2022-09-21T06:18:34.110Z,99.99
2022-09-21T06:19:34.091Z,99.99
2022-09-21T06:20:35.095Z,99.99
2022-09-21T06:21:34.115Z,99.99
2022-09-21T06:22:34.077Z,99.99
2022-09-21T06:23:34.068Z,99.99
2022-09-21T06:24:34.063Z,99.99
2022-09-21T06:25:34.057Z,99.99
2022-09-21T06:26:34.082Z,99.99
2022-09-21T06:27:34.046Z,99.99
2022-09-21T06:28:34.035Z,99.99
2022-09-21T06:29:34.024Z,99.99
2022-09-21T06:30:34.045Z,99.99
2022-09-21T06:31:34.036Z,99.99
2022-09-21T06:32:34.006Z,99.99
2022-09-21T06:33:33.996Z,99.99
2022-09-21T06:34:33.992Z,99.99
2022-09-21T06:35:33.984Z,99.99
2022-09-21T06:36:33.999Z,99.99
2022-09-21T06:37:33.958Z,99.99
2022-09-21T06:38:33.950Z,99.99
2022-09-21T06:39:33.944Z,99.99
2022-09-21T06:40:33.983Z,99.99
2022-09-21T06:41:33.955Z,99.99
2022-09-21T06:42:33.928Z,99.24
2022-09-21T06:43:33.913Z,99.44
2022-09-21T06:44:33.909Z,98.88
2022-09-21T06:45:33.954Z,97.90
2022-09-21T06:46:33.923Z,98.00
2022-09-21T06:47:33.885Z,97.69
2022-09-21T06:48:33.883Z,96.05
2022-09-21T06:49:33.875Z,96.25
2022-09-21T06:50:33.872Z,96.83
2022-09-21T06:51:33.882Z,97.24
2022-09-21T06:52:33.845Z,96.83
2022-09-21T06:53:33.843Z,95.80
2022-09-21T06:54:33.835Z,95.90
2022-09-21T06:55:33.823Z,96.62
2022-09-21T06:56:33.841Z,96.31
2022-09-21T06:57:33.833Z,96.52
2022-09-21T06:58:34.801Z,96.62
2022-09-21T06:59:33.793Z,96.62
2022-09-21T07:00:33.820Z,96.42
2022-09-21T07:01:33.846Z,96.27
2022-09-21T07:02:33.767Z,96.11
2022-09-21T07:03:33.756Z,96.11
2022-09-21T07:04:33.750Z,96.06
2022-09-21T07:05:33.741Z,96.68
2022-09-21T07:06:33.761Z,96.17
2022-09-21T07:07:33.725Z,96.68
2022-09-21T07:10:35.705Z,96.27
2022-09-21T07:11:33.719Z,95.86
2022-09-21T07:12:33.686Z,95.55
2022-09-21T07:13:33.677Z,95.86
2022-09-21T07:14:33.677Z,96.58
2022-09-21T07:15:33.663Z,95.96
2022-09-21T07:16:33.969Z,95.92
2022-09-21T07:17:33.649Z,95.50
2022-09-21T07:18:42.676Z,95.61
2022-09-21T07:19:35.632Z,95.61
2022-09-21T07:20:33.626Z,95.40
2022-09-21T07:21:33.650Z,96.22
2022-09-21T07:22:33.608Z,95.92
2022-09-21T07:23:33.610Z,95.30
2022-09-21T07:24:33.595Z,95.67
2022-09-21T07:25:33.586Z,95.97
2022-09-21T07:26:33.580Z,96.59
2022-09-21T07:27:33.596Z,95.46
2022-09-21T07:28:33.579Z,94.80
2022-09-21T07:29:33.557Z,94.74
2022-09-21T07:30:33.548Z,94.23
2022-09-21T07:31:33.603Z,94.29
2022-09-21T07:32:33.812Z,94.49
2022-09-21T07:33:36.035Z,94.80
2022-09-21T07:34:34.518Z,94.70
2022-09-21T07:35:33.507Z,94.96
2022-09-21T07:36:33.503Z,94.34
2022-09-21T07:37:33.523Z,94.14
2022-09-21T07:38:33.482Z,93.68
2022-09-21T07:39:33.474Z,92.70
2022-09-21T07:40:33.525Z,92.70
2022-09-21T07:41:33.461Z,92.50
2022-09-21T07:42:33.482Z,92.85
2022-09-21T07:43:33.440Z,92.54
2022-09-21T07:44:33.433Z,93.10
2022-09-21T07:45:33.474Z,93.82
2022-09-21T07:46:33.426Z,94.84
2022-09-21T07:47:33.412Z,94.23
2022-09-21T07:48:33.459Z,94.84
2022-09-21T07:49:33.396Z,94.74
2022-09-21T07:50:33.391Z,94.70
2022-09-21T07:51:33.384Z,94.29
2022-09-21T07:52:33.410Z,94.08
2022-09-21T07:53:33.369Z,93.77
2022-09-21T07:54:33.370Z,93.67
2022-09-21T07:55:33.351Z,94.18
2022-09-21T07:56:33.342Z,95.01
2022-09-21T07:57:33.336Z,94.59
2022-09-21T07:58:33.352Z,94.65
2022-09-21T07:59:33.317Z,94.65
2022-09-21T08:00:33.349Z,94.10
2022-09-21T08:01:33.302Z,94.51
2022-09-21T08:02:33.350Z,94.30
2022-09-21T08:03:33.311Z,94.46
2022-09-21T08:04:33.282Z,92.61
2022-09-21T08:05:33.263Z,92.72
2022-09-21T08:06:34.265Z,92.61
2022-09-21T08:07:33.256Z,92.72
2022-09-21T08:08:34.073Z,93.13
2022-09-21T08:09:33.239Z,93.95
2022-09-21T08:10:33.251Z,93.90
2022-09-21T08:11:33.262Z,92.53
2022-09-21T08:12:33.242Z,91.71
2022-09-21T08:13:33.215Z,91.14
2022-09-21T08:14:33.199Z,91.08
2022-09-21T08:15:48.918Z,91.69
2022-09-21T08:16:35.857Z,92.50
2022-09-21T08:17:33.193Z,93.32
2022-09-21T08:18:33.169Z,94.55
2022-09-21T08:19:33.152Z,94.29
2022-09-21T08:20:34.149Z,94.70
2022-09-21T08:21:33.142Z,95.68
2022-09-21T08:22:33.161Z,96.19
2022-09-21T08:23:33.125Z,95.74
2022-09-21T08:24:33.124Z,96.41
2022-09-21T08:25:33.128Z,96.06
2022-09-21T08:26:33.110Z,94.01
2022-09-21T08:27:33.124Z,93.08
2022-09-21T08:28:33.098Z,92.78
2022-09-21T08:29:33.084Z,92.43
2022-09-21T08:30:33.074Z,92.47
2022-09-21T08:31:33.088Z,92.36
2022-09-21T08:32:50.481Z,92.47
2022-09-21T08:33:35.054Z,92.83
2022-09-21T08:34:33.046Z,92.53
2022-09-21T08:35:33.033Z,92.49
2022-09-21T08:36:33.032Z,91.58
2022-09-21T08:37:33.051Z,91.27
2022-09-21T08:38:33.014Z,91.23
2022-09-21T08:39:33.006Z,90.25
2022-09-21T08:40:33.035Z,90.05
2022-09-21T08:41:32.992Z,91.07
2022-09-21T08:42:33.013Z,90.39
2022-09-21T08:43:32.969Z,90.45
2022-09-21T08:44:32.967Z,90.25
2022-09-21T08:45:32.951Z,90.25
2022-09-21T08:46:32.995Z,90.05
2022-09-21T08:47:32.941Z,89.64
2022-09-21T08:48:36.601Z,90.50
2022-09-21T08:49:33.924Z,92.49
2022-09-21T08:50:32.920Z,92.28
2022-09-21T08:51:33.002Z,92.79
2022-09-21T08:52:32.938Z,93.30
2022-09-21T08:53:32.918Z,92.24
2022-09-21T08:54:32.887Z,92.24
2022-09-21T08:55:32.878Z,91.52
2022-09-21T08:56:47.404Z,91.31
2022-09-21T08:57:34.866Z,91.36
2022-09-21T08:58:32.883Z,92.55
2022-09-21T08:59:32.851Z,90.86
2022-09-21T09:00:32.875Z,90.11
2022-09-21T09:01:32.856Z,89.80
2022-09-21T09:02:32.851Z,89.76
2022-09-21T09:03:32.814Z,90.88
2022-09-21T09:04:32.811Z,90.23
2022-09-21T09:05:32.799Z,90.53
2022-09-21T09:06:32.794Z,90.37
2022-09-21T09:07:32.806Z,90.06
2022-09-21T09:08:32.772Z,89.86
2022-09-21T09:09:32.766Z,89.97
2022-09-21T09:10:32.768Z,90.06
2022-09-21T09:11:32.751Z,90.27
2022-09-21T09:12:32.768Z,90.02
2022-09-21T09:13:32.731Z,88.96
2022-09-21T09:14:32.724Z,89.58
2022-09-21T09:15:32.733Z,89.23
2022-09-21T09:16:32.736Z,87.65
2022-09-21T09:17:32.733Z,86.59
2022-09-21T09:18:32.695Z,86.35
2022-09-21T09:19:32.680Z,86.96
2022-09-21T09:20:32.675Z,86.49
2022-09-21T09:21:32.731Z,86.69
2022-09-21T09:22:32.688Z,87.00
2022-09-21T09:23:32.652Z,87.61
2022-09-21T09:24:32.644Z,86.69
2022-09-21T09:25:32.644Z,86.83
2022-09-21T09:26:32.627Z,86.94
2022-09-21T09:27:32.616Z,89.06
2022-09-21T09:28:32.631Z,89.41
2022-09-21T09:29:33.599Z,90.12
2022-09-21T09:30:32.591Z,90.08
2022-09-21T09:31:32.660Z,89.47
2022-09-21T09:32:32.577Z,89.61
2022-09-21T09:33:32.596Z,90.12
2022-09-21T09:34:32.561Z,90.94
2022-09-21T09:35:32.557Z,91.05
2022-09-21T09:36:56.610Z,90.23
2022-09-21T09:37:34.545Z,90.74
2022-09-21T09:38:32.554Z,90.80
2022-09-21T09:39:32.536Z,90.19
2022-09-21T09:40:32.579Z,90.19
2022-09-21T09:41:32.510Z,89.17
2022-09-21T09:42:32.501Z,89.37
2022-09-21T09:43:32.520Z,89.47
2022-09-21T09:44:32.486Z,89.98
2022-09-21T09:45:32.478Z,89.63
2022-09-21T09:46:32.523Z,88.88
2022-09-21T09:47:32.463Z,88.26
2022-09-21T09:48:32.490Z,86.55
2022-09-21T09:49:32.448Z,86.15
2022-09-21T09:50:32.455Z,86.15
2022-09-21T09:51:32.433Z,87.10
2022-09-21T09:52:32.430Z,88.18
2022-09-21T09:53:32.442Z,86.69
2022-09-21T09:54:32.407Z,87.92
2022-09-21T09:55:32.407Z,87.76
2022-09-21T09:56:32.389Z,88.17
2022-09-21T09:57:32.383Z,88.12
2022-09-21T09:58:32.403Z,87.06
2022-09-21T09:59:32.368Z,85.55
2022-09-21T10:00:32.359Z,85.11
2022-09-21T10:01:32.396Z,83.03
2022-09-21T10:02:32.342Z,82.68
2022-09-21T10:03:32.361Z,83.74
2022-09-21T10:04:32.414Z,84.25
2022-09-21T10:05:32.320Z,83.54
2022-09-21T10:06:32.308Z,83.60
2022-09-21T10:07:32.303Z,83.81
2022-09-21T10:08:32.322Z,83.09
2022-09-21T10:09:32.291Z,82.18
2022-09-21T10:10:32.285Z,82.99
2022-09-21T10:11:32.273Z,84.76
2022-09-21T10:12:32.261Z,84.97
2022-09-21T10:13:32.289Z,85.31
2022-09-21T10:14:32.249Z,86.68
2022-09-21T10:15:32.243Z,86.37
2022-09-21T10:16:32.265Z,86.43
2022-09-21T10:17:32.228Z,87.29
2022-09-21T10:18:32.249Z,87.08
2022-09-21T10:19:32.205Z,87.53
2022-09-21T10:20:32.204Z,87.57
2022-09-21T10:21:32.184Z,89.10
2022-09-21T10:22:33.183Z,90.16
2022-09-21T10:23:32.178Z,89.75
2022-09-21T10:24:32.193Z,89.71
2022-09-21T10:25:34.734Z,89.34
2022-09-21T10:26:32.172Z,90.12
2022-09-21T10:27:32.151Z,89.30
2022-09-21T10:28:32.141Z,89.81
2022-09-21T10:29:32.160Z,89.51
2022-09-21T10:30:32.124Z,88.90
2022-09-21T10:31:32.166Z,88.92
2022-09-21T10:32:32.108Z,88.96
2022-09-21T10:33:32.125Z,88.10
2022-09-21T10:34:32.093Z,87.35
2022-09-21T10:35:32.090Z,86.63
2022-09-21T10:36:32.079Z,86.83
2022-09-21T10:37:32.072Z,88.10
2022-09-21T10:38:32.086Z,88.87
2022-09-21T10:39:32.064Z,88.92
2022-09-21T10:40:32.121Z,89.01
2022-09-21T10:41:32.038Z,88.10
2022-09-21T10:42:32.036Z,88.16
2022-09-21T10:43:34.423Z,88.83
2022-09-21T10:44:32.010Z,89.07
2022-09-21T10:45:32.006Z,88.77
2022-09-21T10:46:32.117Z,88.16
2022-09-21T10:47:31.997Z,89.28
2022-09-21T10:48:31.989Z,88.87
2022-09-21T10:49:32.001Z,89.89
2022-09-21T10:50:31.967Z,88.92
2022-09-21T10:51:31.958Z,89.01
2022-09-21T10:52:31.950Z,89.63
2022-09-21T10:53:31.953Z,89.32
2022-09-21T10:54:31.970Z,89.89
2022-09-21T10:55:31.928Z,89.69
2022-09-21T10:56:31.918Z,88.36
2022-09-21T10:57:31.916Z,89.44
2022-09-21T10:58:31.905Z,88.93
2022-09-21T10:59:31.927Z,87.92
2022-09-21T11:00:31.895Z,87.67
2022-09-21T11:01:31.933Z,88.79
2022-09-21T11:02:31.949Z,87.37
2022-09-21T11:03:31.873Z,87.67
2022-09-21T11:04:31.883Z,89.76
2022-09-21T11:05:31.848Z,88.79
2022-09-21T11:06:31.837Z,88.85
2022-09-21T11:07:31.836Z,87.63
2022-09-21T11:08:31.826Z,87.93
2022-09-21T11:09:31.843Z,86.41
2022-09-21T11:10:34.297Z,88.10
2022-09-21T11:11:32.801Z,85.25
2022-09-21T11:12:31.795Z,83.83
2022-09-21T11:13:31.787Z,85.25
2022-09-21T11:14:31.808Z,85.25
2022-09-21T11:15:31.807Z,85.35
2022-09-21T11:16:31.780Z,84.91
2022-09-21T11:17:32.754Z,82.78
2022-09-21T11:18:31.745Z,83.79
2022-09-21T11:19:31.766Z,83.54
2022-09-21T11:20:31.735Z,82.33
2022-09-21T11:21:31.723Z,83.51
2022-09-21T11:22:31.711Z,82.59
2022-09-21T11:23:31.711Z,82.90
2022-09-21T11:24:31.708Z,82.23
2022-09-21T11:25:32.695Z,81.82
2022-09-21T11:26:31.770Z,79.79
2022-09-21T11:27:31.675Z,78.94
2022-09-21T11:28:31.666Z,74.82
2022-09-21T11:29:31.904Z,75.29
2022-09-21T11:30:31.653Z,75.19
2022-09-21T11:31:31.644Z,77.22
2022-09-21T11:32:31.717Z,77.69
2022-09-21T11:33:31.629Z,74.95
2022-09-21T11:34:31.663Z,75.25
2022-09-21T11:35:31.623Z,74.81
2022-09-21T11:36:31.608Z,73.22
2022-09-21T11:37:32.595Z,73.49
2022-09-21T11:38:34.255Z,71.57
2022-09-21T11:39:32.813Z,72.14
2022-09-21T11:40:31.692Z,76.60
2022-09-21T11:41:31.558Z,74.27
2022-09-21T11:42:31.550Z,76.70
2022-09-21T11:43:31.547Z,76.33
2022-09-21T11:44:31.535Z,76.43
2022-09-21T11:45:31.551Z,74.81
2022-09-21T11:46:31.547Z,72.96
2022-09-21T11:47:31.507Z,72.85
2022-09-21T11:48:31.520Z,72.45
2022-09-21T11:49:31.525Z,70.62
2022-09-21T11:50:31.837Z,71.13
2022-09-21T11:51:31.483Z,69.92
2022-09-21T11:52:31.475Z,70.08
2022-09-21T11:53:31.474Z,71.80
2022-09-21T11:54:31.481Z,70.59
2022-09-21T11:55:31.442Z,71.77
2022-09-21T11:56:31.442Z,71.37
2022-09-21T11:57:31.476Z,71.26
2022-09-21T11:58:31.427Z,68.77
2022-09-21T11:59:31.748Z,68.33
2022-09-21T12:00:31.633Z,69.27
2022-09-21T12:01:31.398Z,64.28
2022-09-21T12:02:31.517Z,64.69
2022-09-21T12:03:31.387Z,66.20
2022-09-21T12:04:31.405Z,67.11
2022-09-21T12:05:31.367Z,66.00
2022-09-21T12:06:31.359Z,66.03
2022-09-21T12:07:31.354Z,65.29
2022-09-21T12:08:31.343Z,64.07
2022-09-21T12:09:31.363Z,64.48
2022-09-21T12:10:31.328Z,67.93
2022-09-21T12:11:31.324Z,65.50
2022-09-21T12:12:31.314Z,66.20
2022-09-21T12:13:31.305Z,65.77
2022-09-21T12:14:31.353Z,67.79
2022-09-21T12:15:31.289Z,66.35
2022-09-21T12:16:31.297Z,66.85
2022-09-21T12:17:31.271Z,67.05
2022-09-21T12:18:31.262Z,65.20
2022-09-21T12:19:31.256Z,65.10
2022-09-21T12:20:31.275Z,67.63
2022-09-21T12:21:31.239Z,64.70
2022-09-21T12:22:31.238Z,64.87
2022-09-21T12:23:31.210Z,63.85
2022-09-21T12:24:32.344Z,63.62
2022-09-21T12:25:31.212Z,65.37
2022-09-21T12:26:31.197Z,64.16
2022-09-21T12:27:31.193Z,63.65
2022-09-21T12:28:31.181Z,63.78
2022-09-21T12:29:31.175Z,64.19
2022-09-21T12:30:31.239Z,63.55
2022-09-21T12:31:31.160Z,64.16
2022-09-21T12:32:31.151Z,63.76
2022-09-21T12:33:31.143Z,64.59
2022-09-21T12:34:31.136Z,64.59
2022-09-21T12:35:31.160Z,64.29
2022-09-21T12:36:31.114Z,62.85
2022-09-21T12:37:31.104Z,60.62
2022-09-21T12:38:31.113Z,60.60
2022-09-21T12:39:31.085Z,61.68
2022-09-21T12:40:31.144Z,61.37
2022-09-21T12:41:31.071Z,59.15
2022-09-21T12:42:31.071Z,59.56
2022-09-21T12:43:31.061Z,60.06
2022-09-21T12:44:31.052Z,61.17
2022-09-21T12:45:31.063Z,59.15
2022-09-21T12:46:31.076Z,58.01
2022-09-21T12:47:31.029Z,57.94
2022-09-21T12:48:31.017Z,58.45
2022-09-21T12:49:31.016Z,58.04
2022-09-21T12:50:31.023Z,58.25
2022-09-21T12:51:30.990Z,57.74
2022-09-21T12:52:30.990Z,57.61
2022-09-21T12:53:30.977Z,58.42
2022-09-21T12:54:30.986Z,59.33